Updated30/11/2022 11:04pm 
 

Nearby Airport METAR Reports

 

KVSF - Springfield, Vermont, USA
Distance from station: WSW 8mi, 12km
Updated: 11/30/2022 10:54pm
Overcast
Overcast
 Wind from W
Wind: W 26 km/h, Gust: 52 km/h
Temperature: 39°F , 4°C
Wind Chill: 30°F , -1°C
Dew Point: 23°F , -5°C
Humidity: 52%
Barometer: 1005.8 hPa
Clouds: Overcast
Visibility: 16 km
Cloud details: Overcast 4600 ft
2022/12/01 03:54 KVSF 010354Z AUTO 27014G28KT 10SM OVC046 04/M05 A2970 RMK AO2 PK WND 30029/0329 SLP062 T00441050
KLEB - Lebanon, New Hampshire, USA
Distance from station: N 18mi, 29km
Updated: 11/30/2022 10:53pm
Overcast
Overcast
 Wind from WNW
Wind: WNW 26 km/h, Gust: 48 km/h
Temperature: 39°F , 4°C
Wind Chill: 30°F , -1°C
Dew Point: 25°F , -4°C
Humidity: 56%
Barometer: 1004.7 hPa
Clouds: Overcast
Visibility: 16 km
Cloud details: Overcast 4700 ft
2022/12/01 03:53 KLEB 010353Z AUTO 29014G26KT 10SM OVC047 04/M04 A2967 RMK AO2 PK WND 28028/0341 RAE03 SLP052 P0000 T00441039
KRUT - Rutland State, Vermont, USA
Distance from station: WNW 31mi, 50km
Updated: 11/30/2022 10:56pm
Overcast
Overcast
 Wind from W
Wind: W 13 km/h
Temperature: 37°F , 3°C
Wind Chill: 31°F , -1°C
Dew Point: 23°F , -5°C
Humidity: 56%
Barometer: 1006.4 hPa
Clouds: Overcast
Visibility: 16 km
Cloud details: Overcast 4100 ft
2022/12/01 03:56 KRUT 010356Z AUTO 28007KT 240V330 10SM OVC041 03/M05 A2972 RMK AO2 SLP063 T00281050 $
 
KEEN - Keene/Dillant, New Hampshire, USA
Distance from station: S 34mi, 55km
Updated: 11/30/2022 10:56pm
Overcast
Overcast
 Wind from WNW
Wind: WNW 24 km/h, Gust: 41 km/h
Temperature: 41°F , 5°C
Wind Chill: 33°F , 1°C
Dew Point: 27°F , -3°C
Humidity: 57%
Clouds: Overcast
Visibility: 16 km
Cloud details: Overcast 4600 ft
2022/12/01 03:56 KEEN 010356Z AUTO 29013G22KT 10SM OVC046 05/M03 RMK AO2 SLPNO T00501033 $
K1P1 - Plymouth, New Hampshire, USA
Distance from station: NE 42mi, 67km
Updated: 11/30/2022 10:55pm
Overcast
Overcast
 Wind from W
Wind: W 28 km/h, Gust: 48 km/h
Temperature: 41°F , 5°C
Wind Chill: 33°F , 1°C
Dew Point: 28°F , -2°C
Humidity: 61%
Barometer: 1003 hPa
Clouds: Overcast
Visibility: 16 km
Cloud details: Mostly cloudy 4400 ft
Overcast 5000 ft
2022/12/01 03:55 K1P1 010355Z AUTO 26015G26KT 10SM BKN044 OVC050 05/M02 A2962 RMK AO2 P0007 T00501021 401051011
KAFN - Jaffrey, New Hampshire, USA
Distance from station: SSE 44mi, 70km
Updated: 11/30/2022 10:52pm
Mostly cloudy
Mostly cloudy
 Wind from W
Wind: W 20 km/h, Gust: 41 km/h
Temperature: 39°F , 4°C
Wind Chill: 31°F , -1°C
Dew Point: 25°F , -4°C
Humidity: 56%
Barometer: 1004.4 hPa
Clouds: Mostly cloudy
Visibility: 16 km
Cloud details: Mostly cloudy 4100 ft
2022/12/01 03:52 KAFN 010352Z AUTO 27011G22KT 10SM BKN041 04/M04 A2966 RMK AO2 PK WND 28026/0315 SLP055 T00391039
 
KCON - Concord, New Hampshire, USA
Distance from station: ESE 45mi, 73km
Updated: 11/30/2022 10:51pm
Mostly cloudy
Mostly cloudy
 Wind from W
Wind: W 22 km/h, Gust: 39 km/h
Temperature: 43°F , 6°C
Wind Chill: 36°F , 2°C
Dew Point: 30°F , -1°C
Humidity: 61%
Barometer: 1003.7 hPa
Clouds: Mostly cloudy
Visibility: 16 km
Cloud details: Mostly cloudy 4000 ft
Mostly cloudy 11000 ft
2022/12/01 03:51 KCON 010351Z AUTO 28012G21KT 250V340 10SM BKN040 BKN110 06/M01 A2964 RMK AO2 SLP039 T00561011
KLCI - Laconia Muni, New Hampshire, USA
Distance from station: ENE 49mi, 80km
Updated: 11/30/2022 10:56pm
Overcast
Overcast
 Wind from W
Wind: W 19 km/h, Gust: 37 km/h
Temperature: 41°F , 5°C
Wind Chill: 34°F , 1°C
Dew Point: 34°F , 1°C
Humidity: 76%
Barometer: 1003 hPa
Clouds: Overcast
Visibility: 16 km
Cloud details: Few Clouds 2700 ft
Partly cloudy 3400 ft
Overcast 4900 ft
2022/12/01 03:56 KLCI 010356Z AUTO 26010G20KT 10SM FEW027 SCT034 OVC049 05/01 A2962 RMK AO2 PK WND 26029/0333 SLP034 T00500006
KDDH - Bennington, Vermont, USA
Distance from station: SW 55mi, 89km
Updated: 11/30/2022 9:54pm
Overcast
Overcast
 Wind from WNW
Wind: WNW 26 km/h, Gust: 44 km/h
Temperature: 37°F , 3°C
Wind Chill: 28°F , -2°C
Dew Point: 25°F , -4°C
Humidity: 60%
Barometer: 1007.1 hPa
Clouds: Overcast
Visibility: 16 km
Cloud details: Few Clouds 2900 ft
Partly cloudy 3900 ft
Overcast 4800 ft
2022/12/01 02:54 KDDH 010254Z AUTO 29014G24KT 10SM FEW029 SCT039 OVC048 03/M04 A2974 RMK AO2 PK WND 27029/0243 SLPNO 60000 T00331044 51008
 
K6B0 - Middlebury, Vermont, USA
Distance from station: NW 56mi, 90km
Updated: 11/30/2022 10:55pm
Overcast
Overcast
 Wind from WSW
Wind: WSW 13 km/h
Temperature: 36°F , 2°C
Wind Chill: 30°F , -1°C
Dew Point: 23°F , -5°C
Humidity: 60%
Barometer: 1006.8 hPa
Clouds: Overcast
Visibility: 16 km
Cloud details: Overcast 4400 ft
2022/12/01 03:55 K6B0 010355Z AUTO 25007KT 220V280 10SM OVC044 02/M05 A2973 RMK AO2 T00231047
KMHT - Manchester, New Hampshire, USA
Distance from station: ESE 56mi, 90km
Updated: 11/30/2022 10:53pm
Mostly cloudy
Mostly cloudy
 Wind from W
Wind: W 24 km/h, Gust: 37 km/h
Temperature: 43°F , 6°C
Wind Chill: 36°F , 2°C
Dew Point: 34°F , 1°C
Humidity: 71%
Barometer: 1003.7 hPa
Clouds: Mostly cloudy
Visibility: 16 km
Cloud details: Mostly cloudy 3300 ft
Mostly cloudy 4300 ft
2022/12/01 03:53 KMHT 010353Z 28013G20KT 10SM BKN033 BKN043 06/01 A2964 RMK AO2 PK WND 29029/0323 SLP053 T00610006
KORE - Orange, Massachusetts, USA
Distance from station: S 56mi, 90km
Updated: 11/30/2022 10:52pm
Mostly cloudy
Mostly cloudy
 Wind from WNW
Wind: WNW 15 km/h, Gust: 28 km/h
Temperature: 39°F , 4°C
Wind Chill: 33°F , 1°C
Dew Point: 27°F , -3°C
Humidity: 61%
Barometer: 1006.1 hPa
Clouds: Mostly cloudy
Visibility: 16 km
Cloud details: Mostly cloudy 4900 ft
2022/12/01 03:52 KORE 010352Z AUTO 29008G15KT 10SM BKN049 04/M03 A2971 RMK AO2 SLP066 T00441028
 
KMPV - Montpelier/Barre, Vermont, USA
Distance from station: N 58mi, 93km
Updated: 11/30/2022 10:51pm
Overcast
Overcast
 Wind from WNW
Wind: WNW 28 km/h, Gust: 37 km/h
Temperature: 37°F , 3°C
Wind Chill: 27°F , -3°C
Dew Point: 25°F , -4°C
Humidity: 60%
Barometer: 1005.4 hPa
Clouds: Overcast
Visibility: 16 km
Cloud details: Overcast 3700 ft
2022/12/01 03:51 KMPV 010351Z AUTO 29015G20KT 10SM OVC037 03/M04 A2969 RMK AO2 SLP063 T00331039
KASH - Nashua/Boire Fld, New Hampshire, USA
Distance from station: SE 59mi, 95km
Updated: 11/30/2022 10:56pm
Mostly cloudy
Mostly cloudy
 Wind from W
Wind: W 19 km/h
Temperature: 43°F , 6°C
Wind Chill: 37°F , 3°C
Dew Point: 28°F , -2°C
Humidity: 57%
Barometer: 1005.1 hPa
Clouds: Mostly cloudy
Visibility: 16 km
Cloud details: Mostly cloudy 4500 ft
Mostly cloudy 11000 ft
2022/12/01 03:56 KASH 010356Z AUTO 28010KT 10SM BKN045 BKN110 06/M02 A2968 RMK AO2 PK WND 30031/0340 SLP055 T00561017
KAQW - North Adams, Massachusetts, USA
Distance from station: SW 62mi, 99km
Updated: 11/30/2022 10:52pm
Overcast
Overcast
 Wind from W
Wind: W 24 km/h, Gust: 39 km/h
Temperature: 37°F , 3°C
Wind Chill: 28°F , -2°C
Dew Point: 27°F , -3°C
Humidity: 65%
Barometer: 1007.8 hPa
Clouds: Overcast
Visibility: 16 km
Cloud details: Mostly cloudy 3500 ft
Overcast 4400 ft
2022/12/01 03:52 KAQW 010352Z AUTO 27013G21KT 10SM BKN035 OVC044 03/M03 A2976 RMK AO2 PK WND 28031/0318 SLP082 T00331028 $
 
KGFL - Glens Falls, New York, USA
Distance from station: W 63mi, 101km
Updated: 11/30/2022 10:53pm
Overcast
Overcast
 Wind from WSW
Wind: WSW 17 km/h
Temperature: 37°F , 3°C
Wind Chill: 30°F , -1°C
Dew Point: 19°F , -7°C
Humidity: 48%
Barometer: 1008.5 hPa
Clouds: Overcast
Visibility: 16 km
Cloud details: Overcast 5500 ft
2022/12/01 03:53 KGFL 010353Z AUTO 24009KT 10SM OVC055 03/M07 A2978 RMK AO2 SLP091 T00281067
KFIT - Fitchburg, Massachusetts, USA
Distance from station: SSE 65mi, 105km
Updated: 11/30/2022 10:52pm
Light rain, Clear
Light rain, Clear
 Wind from WNW
Wind: WNW 30 km/h, Gust: 48 km/h
Temperature: 41°F , 5°C
Wind Chill: 32°F , 0°C
Dew Point: 27°F , -3°C
Humidity: 57%
Barometer: 1005.4 hPa
Summary: Light rain
Clouds: Clear
Visibility: 16 km
2022/12/01 03:52 KFIT 010352Z AUTO 29016G26KT 10SM -RA CLR 05/M03 A2969 RMK AO2 PK WND 30030/0259 SLP057 P0000 T00501033 $
KDAW - Rochester, New Hampshire, USA
Distance from station: E 73mi, 118km
Updated: 11/30/2022 10:51pm
Mostly cloudy
Mostly cloudy
 Wind from varies
Wind: varies 9 km/h
Temperature: 45°F , 7°C
Wind Chill: 42°F , 6°C
Dew Point: 37°F , 3°C
Humidity: 76%
Barometer: 1002.7 hPa
Clouds: Mostly cloudy
Visibility: 16 km
Cloud details: Few Clouds 4100 ft
Mostly cloudy 11000 ft
2022/12/01 03:51 KDAW 010351Z AUTO VRB05KT 10SM FEW041 BKN110 07/03 A2961 RMK AO2 RAB0253E11 SLP024 P0000 T00720028
 
K1V4 - St. Johnsbury, Vermont, USA
Distance from station: NNE 74mi, 119km
Updated: 11/30/2022 10:54pm

 
Temperature: 37°F , 3°C
Dew Point: 28°F , -2°C
Humidity: 70%
Barometer: 1002.7 hPa
2022/12/01 03:54 K1V4 010354Z AUTO 03/M02 A2961 RMK AO1 SLP034 T00331022 PNO
KLWM - Lawrence, Massachusetts, USA
Distance from station: SE 77mi, 124km
Updated: 11/30/2022 10:54pm
Mostly cloudy
Mostly cloudy
 Wind from W
Wind: W 26 km/h, Gust: 41 km/h
Temperature: 45°F , 7°C
Wind Chill: 38°F , 3°C
Dew Point: 32°F , 0°C
Humidity: 61%
Barometer: 1004.1 hPa
Clouds: Mostly cloudy
Visibility: 16 km
Cloud details: Mostly cloudy 11000 ft
2022/12/01 03:54 KLWM 010354Z AUTO 27014G22KT 10SM BKN110 07/00 A2965 RMK AO2 PK WND 27027/0319 SLP042 T00670000



Flag Counter
free counter page views since 4/29/2009